Time;durP1;ratioP1;P1;durP2;ratioP2;P2;SDS_P1;SDS_P2;PMS_P1;PMS_P2;Temp;Humidity;BMP_temperature;BMP_pressure;BME280_temperature;BME280_humidity;BME280_pressure;Samples;Min_cycle;Max_cycle;Signal;HPM_P1;HPM_P2
2022/07/10 00:00:30;;;;;;;3.97;1.07;;;16.50;99.90;;;;;;5061008;28;20461;-79
2022/07/10 00:02:57;;;;;;;2.83;1.20;;;16.50;99.90;;;;;;5069762;28;20548;-78
2022/07/10 00:05:24;;;;;;;4.70;1.13;;;16.50;99.90;;;;;;5065776;28;20488;-78
2022/07/10 00:07:52;;;;;;;3.70;1.00;;;16.50;99.90;;;;;;5067039;28;20467;-79
2022/07/10 00:10:19;;;;;;;3.53;0.90;;;16.50;99.90;;;;;;5068867;28;20621;-79
2022/07/10 00:12:48;;;;;;;3.40;1.07;;;16.50;99.90;;;;;;5070547;28;20552;-78
2022/07/10 00:15:16;;;;;;;3.43;0.90;;;16.50;99.90;;;;;;5067556;28;20460;-79
2022/07/10 00:17:44;;;;;;;3.17;1.10;;;16.50;99.90;;;;;;5068229;28;20505;-79
2022/07/10 00:20:12;;;;;;;4.67;1.20;;;16.50;99.90;;;;;;5071744;28;20553;-79
2022/07/10 00:22:40;;;;;;;3.50;1.00;;;16.50;99.90;;;;;;5067711;28;20955;-78
2022/07/10 00:25:08;;;;;;;3.50;0.90;;;16.40;99.90;;;;;;5066362;28;20546;-78
2022/07/10 00:27:35;;;;;;;4.10;1.20;;;16.50;99.90;;;;;;5075658;28;20536;-79
2022/07/10 00:30:03;;;;;;;4.00;1.30;;;16.50;99.90;;;;;;5065431;28;20559;-79
2022/07/10 00:32:31;;;;;;;9.23;1.20;;;16.50;99.90;;;;;;5075361;28;20929;-80
2022/07/10 00:34:58;;;;;;;3.00;1.00;;;16.50;99.90;;;;;;5066924;28;20545;-77
2022/07/10 00:37:25;;;;;;;3.43;1.00;;;16.50;99.90;;;;;;5069238;28;20546;-78
2022/07/10 00:39:52;;;;;;;6.33;1.40;;;16.50;99.90;;;;;;5066951;28;20495;-78
2022/07/10 00:42:19;;;;;;;5.13;1.17;;;16.50;99.90;;;;;;5075792;28;20551;-79
2022/07/10 00:44:46;;;;;;;5.97;1.20;;;16.60;99.90;;;;;;5064258;28;20534;-78
2022/07/10 00:47:14;;;;;;;8.23;1.57;;;16.50;99.90;;;;;;5066931;28;20505;-78
2022/07/10 00:49:42;;;;;;;6.80;0.90;;;16.60;99.90;;;;;;5069420;28;20470;-79
2022/07/10 00:52:12;;;;;;;6.23;1.47;;;16.50;99.90;;;;;;5070996;28;20584;-78
2022/07/10 00:54:40;;;;;;;4.97;0.97;;;16.50;99.90;;;;;;5060056;28;20533;-79
2022/07/10 00:57:08;;;;;;;6.57;1.10;;;16.50;99.90;;;;;;5081802;28;20504;-77
2022/07/10 00:59:36;;;;;;;5.20;1.47;;;16.50;99.90;;;;;;5065265;28;20495;-77
2022/07/10 01:02:07;;;;;;;3.13;1.20;;;16.50;99.90;;;;;;5058672;28;20496;-79
2022/07/10 01:04:34;;;;;;;8.87;1.10;;;16.50;99.90;;;;;;5069753;28;20455;-79
2022/07/10 01:07:04;;;;;;;4.70;0.90;;;16.50;99.90;;;;;;5070276;28;20537;-81
2022/07/10 01:09:32;;;;;;;2.97;1.13;;;16.50;99.90;;;;;;5070629;28;20479;-78
2022/07/10 01:12:01;;;;;;;3.80;1.50;;;16.50;99.90;;;;;;5071157;28;20558;-78
2022/07/10 01:14:29;;;;;;;5.03;1.43;;;16.40;99.90;;;;;;5070471;28;20450;-78
2022/07/10 01:16:56;;;;;;;4.10;1.23;;;16.40;99.90;;;;;;5068209;28;20515;-78
2022/07/10 01:19:23;;;;;;;3.17;1.17;;;16.40;99.90;;;;;;5071367;28;20487;-78
2022/07/10 01:21:51;;;;;;;3.10;0.90;;;16.50;99.90;;;;;;5070533;28;20522;-78
2022/07/10 01:24:18;;;;;;;4.83;1.37;;;16.30;99.90;;;;;;5070726;28;20454;-79
2022/07/10 01:26:44;;;;;;;4.33;1.00;;;16.30;99.90;;;;;;5069300;28;20541;-78
2022/07/10 01:29:12;;;;;;;7.70;1.30;;;16.40;99.90;;;;;;5072608;28;20548;-79
2022/07/10 01:31:40;;;;;;;2.97;1.20;;;16.40;99.90;;;;;;5074080;28;20489;-79
2022/07/10 01:34:09;;;;;;;3.40;1.10;;;16.40;99.90;;;;;;5061020;28;20460;-80
2022/07/10 01:36:36;;;;;;;5.57;1.20;;;16.30;99.90;;;;;;5077184;28;20459;-80
2022/07/10 01:39:05;;;;;;;4.53;1.17;;;16.40;99.90;;;;;;5083081;28;20488;-77
2022/07/10 01:41:32;;;;;;;5.00;1.20;;;16.40;99.90;;;;;;5075727;28;20557;-79
2022/07/10 01:43:59;;;;;;;8.27;1.30;;;16.40;99.90;;;;;;5072200;28;20569;-77
2022/07/10 01:46:26;;;;;;;5.53;1.37;;;16.40;99.90;;;;;;5075780;28;20487;-79
2022/07/10 01:48:53;;;;;;;5.57;1.40;;;16.40;99.90;;;;;;5075597;28;20455;-79
2022/07/10 01:51:20;;;;;;;4.00;1.30;;;16.40;99.90;;;;;;5073319;28;20478;-79
2022/07/10 01:53:47;;;;;;;4.17;1.20;;;16.40;99.90;;;;;;5060914;28;20477;-78
2022/07/10 01:56:16;;;;;;;5.20;1.40;;;16.40;99.90;;;;;;5060682;28;20542;-78
2022/07/10 01:58:43;;;;;;;4.53;1.50;;;16.50;99.90;;;;;;5076777;28;20462;-79
2022/07/10 02:01:11;;;;;;;4.20;1.17;;;16.50;99.90;;;;;;5073139;28;20558;-79
2022/07/10 02:06:22;;;;;;;3.57;0.90;;;16.50;99.90;;;;;;5059966;28;20541;-79
2022/07/10 02:08:49;;;;;;;4.07;1.20;;;16.50;99.90;;;;;;5073856;28;20455;-77
2022/07/10 02:11:17;;;;;;;6.53;1.30;;;16.40;99.90;;;;;;5073583;28;20501;-80
2022/07/10 02:13:44;;;;;;;6.63;1.03;;;16.40;99.90;;;;;;5089295;28;20529;-79
2022/07/10 02:16:11;;;;;;;3.37;1.03;;;16.30;99.90;;;;;;5093046;28;20497;-79
2022/07/10 02:18:39;;;;;;;5.30;1.30;;;16.30;99.90;;;;;;5076946;28;20545;-80
2022/07/10 02:21:06;;;;;;;3.70;1.23;;;16.30;99.90;;;;;;5064656;28;20838;-80
2022/07/10 02:23:33;;;;;;;6.80;1.30;;;16.20;99.90;;;;;;5067828;28;20573;-80
2022/07/10 02:26:00;;;;;;;5.03;1.20;;;16.10;99.90;;;;;;5073074;28;20480;-80
2022/07/10 02:28:29;;;;;;;8.63;1.40;;;16.10;99.90;;;;;;5073110;28;20493;-80
2022/07/10 02:30:56;;;;;;;4.30;1.20;;;16.10;99.90;;;;;;5073054;28;20498;-80
2022/07/10 02:33:22;;;;;;;5.47;1.70;;;16.10;99.90;;;;;;5086802;28;20540;-77
2022/07/10 02:35:49;;;;;;;6.13;1.30;;;16.10;99.90;;;;;;5092914;28;20552;-79
2022/07/10 02:38:16;;;;;;;5.10;1.30;;;16.10;99.90;;;;;;5084337;28;20898;-79
2022/07/10 02:40:43;;;;;;;7.23;1.20;;;16.10;99.90;;;;;;5054871;28;20484;-80
2022/07/10 02:43:10;;;;;;;3.30;1.20;;;16.10;99.90;;;;;;5071657;28;20485;-79
2022/07/10 02:45:38;;;;;;;5.47;1.20;;;16.00;99.90;;;;;;5059596;28;20455;-79
2022/07/10 02:48:05;;;;;;;4.17;1.50;;;16.00;99.90;;;;;;5069933;28;20457;-79
2022/07/10 02:50:32;;;;;;;3.23;1.30;;;15.90;99.90;;;;;;5067849;28;20570;-78
2022/07/10 02:52:59;;;;;;;3.43;1.17;;;15.90;99.90;;;;;;5058495;28;20565;-78
2022/07/10 02:55:26;;;;;;;3.73;1.20;;;15.80;99.90;;;;;;5054616;28;20545;-78
2022/07/10 02:57:53;;;;;;;7.57;1.50;;;15.80;99.90;;;;;;5084904;28;20494;-79
2022/07/10 03:00:20;;;;;;;4.23;1.00;;;15.80;99.90;;;;;;5054176;28;20451;-79
2022/07/10 03:02:48;;;;;;;4.17;1.10;;;15.90;99.90;;;;;;5092681;28;20871;-77
2022/07/10 03:05:15;;;;;;;3.53;1.00;;;15.90;99.90;;;;;;5064252;28;20541;-79
2022/07/10 03:07:42;;;;;;;5.60;1.50;;;15.90;99.90;;;;;;5067627;28;20553;-80
2022/07/10 03:10:10;;;;;;;7.20;1.07;;;15.90;99.90;;;;;;5071598;28;20485;-79
2022/07/10 03:12:37;;;;;;;3.20;1.23;;;15.90;99.90;;;;;;5092729;28;20470;-78
2022/07/10 03:15:05;;;;;;;4.03;1.10;;;15.90;99.90;;;;;;5079866;28;20461;-78
2022/07/10 03:17:32;;;;;;;3.70;1.10;;;15.90;99.90;;;;;;5090962;28;20539;-79
2022/07/10 03:20:00;;;;;;;4.17;1.17;;;15.90;99.90;;;;;;5085075;28;20534;-77
2022/07/10 03:22:28;;;;;;;2.80;1.30;;;16.00;99.90;;;;;;5090401;28;22432;-79
2022/07/10 03:24:55;;;;;;;3.93;1.20;;;16.00;99.90;;;;;;5062672;28;20463;-79
2022/07/10 03:27:22;;;;;;;7.00;1.20;;;16.00;99.90;;;;;;5088200;28;20488;-79
2022/07/10 03:29:48;;;;;;;5.43;1.43;;;16.00;99.90;;;;;;5077488;28;21021;-80
2022/07/10 03:32:15;;;;;;;4.90;1.10;;;16.00;99.90;;;;;;5080150;28;20478;-79
2022/07/10 03:34:42;;;;;;;7.17;1.17;;;16.10;99.90;;;;;;5071321;28;20531;-80
2022/07/10 03:37:10;;;;;;;4.70;1.50;;;16.10;99.90;;;;;;5061603;28;20543;-79
2022/07/10 03:39:37;;;;;;;6.77;1.37;;;16.00;99.90;;;;;;5056461;28;20538;-78
2022/07/10 03:42:05;;;;;;;3.83;1.30;;;16.10;99.90;;;;;;5062734;28;20564;-78
2022/07/10 03:44:32;;;;;;;3.80;1.50;;;16.10;99.90;;;;;;5074983;28;20512;-77
2022/07/10 03:46:59;;;;;;;5.93;1.13;;;16.10;99.90;;;;;;5077427;28;20451;-78
2022/07/10 03:49:26;;;;;;;4.03;1.10;;;16.00;99.90;;;;;;5072392;28;20455;-78
2022/07/10 03:51:53;;;;;;;4.27;1.10;;;16.00;99.90;;;;;;5062498;28;20575;-78
2022/07/10 03:54:22;;;;;;;4.63;1.60;;;16.00;99.90;;;;;;5059277;28;20450;-78
2022/07/10 03:59:33;;;;;;;5.70;1.30;;;16.00;99.90;;;;;;5092760;28;20500;-79
2022/07/10 04:02:00;;;;;;;5.80;1.30;;;16.00;99.90;;;;;;5079182;28;21053;-79
2022/07/10 04:04:27;;;;;;;4.63;1.30;;;16.10;99.90;;;;;;5078431;28;21136;-79
2022/07/10 04:06:54;;;;;;;4.50;1.30;;;16.10;99.90;;;;;;5054581;28;20485;-79
2022/07/10 04:09:22;;;;;;;8.57;1.80;;;16.00;99.90;;;;;;5065941;28;20458;-78
2022/07/10 04:11:49;;;;;;;2.90;1.20;;;16.00;99.90;;;;;;5068727;28;20553;-78
2022/07/10 04:14:16;;;;;;;3.63;1.10;;;16.10;99.90;;;;;;5075961;28;20517;-82
2022/07/10 04:16:43;;;;;;;3.30;1.30;;;16.10;99.90;;;;;;5085590;28;20489;-81
2022/07/10 04:19:10;;;;;;;4.40;1.43;;;16.10;99.90;;;;;;5098409;28;20455;-79
2022/07/10 04:21:37;;;;;;;5.23;1.40;;;16.10;99.90;;;;;;5077482;28;20866;-80
2022/07/10 04:24:04;;;;;;;3.63;1.43;;;16.10;99.90;;;;;;5095179;28;22113;-80
2022/07/10 04:26:33;;;;;;;4.07;1.20;;;16.10;99.90;;;;;;5067515;28;20495;-80
2022/07/10 04:28:59;;;;;;;4.73;1.30;;;16.10;99.90;;;;;;5082043;28;20538;-79
2022/07/10 04:31:26;;;;;;;5.27;1.33;;;16.00;99.90;;;;;;5095821;28;20504;-82
2022/07/10 04:33:53;;;;;;;3.50;1.10;;;16.00;99.90;;;;;;5078634;28;20489;-81
2022/07/10 04:36:20;;;;;;;8.97;1.57;;;16.00;99.90;;;;;;5080542;28;20455;-82
2022/07/10 04:38:47;;;;;;;2.43;1.00;;;16.00;99.90;;;;;;5097490;28;20945;-82
2022/07/10 04:41:14;;;;;;;2.50;0.90;;;16.00;99.90;;;;;;5069551;28;20506;-83
2022/07/10 04:43:42;;;;;;;5.77;1.30;;;16.00;99.90;;;;;;5082094;28;20555;-82
2022/07/10 04:46:09;;;;;;;5.27;1.37;;;16.00;99.90;;;;;;5080382;28;20456;-82
2022/07/10 04:48:35;;;;;;;3.57;1.17;;;15.90;99.90;;;;;;5062872;28;20485;-82
2022/07/10 04:51:02;;;;;;;5.07;1.63;;;15.90;99.90;;;;;;5087643;28;20521;-83
2022/07/10 04:53:29;;;;;;;3.93;1.07;;;15.90;99.90;;;;;;5062611;28;20477;-82
2022/07/10 04:55:56;;;;;;;8.53;1.93;;;15.90;99.90;;;;;;5078953;28;20492;-83
2022/07/10 04:58:23;;;;;;;4.83;1.30;;;15.90;99.90;;;;;;5079194;28;20480;-82
2022/07/10 05:00:51;;;;;;;4.47;0.83;;;15.80;99.90;;;;;;5076384;28;20479;-83
2022/07/10 05:03:18;;;;;;;3.90;1.30;;;15.80;99.90;;;;;;5072955;28;20520;-83
2022/07/10 05:05:45;;;;;;;4.20;1.20;;;15.80;99.90;;;;;;5084817;28;20451;-81
2022/07/10 05:08:12;;;;;;;5.43;1.57;;;15.80;99.90;;;;;;5081806;28;20820;-80
2022/07/10 05:10:39;;;;;;;5.83;1.40;;;15.80;99.90;;;;;;5081143;28;20533;-82
2022/07/10 05:13:06;;;;;;;6.27;1.53;;;15.90;99.90;;;;;;5082578;28;20477;-83
2022/07/10 05:15:33;;;;;;;6.20;1.60;;;15.90;99.90;;;;;;5078510;28;20447;-81
2022/07/10 05:18:01;;;;;;;8.20;1.63;;;16.00;99.90;;;;;;5085220;28;21053;-82
2022/07/10 05:20:28;;;;;;;5.23;1.30;;;16.00;99.90;;;;;;5086118;28;20443;-82
2022/07/10 05:22:55;;;;;;;6.03;1.20;;;16.00;99.90;;;;;;5084394;28;20771;-81
2022/07/10 05:25:22;;;;;;;3.90;1.20;;;16.10;99.90;;;;;;5075894;28;20454;-81
2022/07/10 05:27:49;;;;;;;5.80;1.30;;;16.20;99.90;;;;;;5072314;28;20458;-83
2022/07/10 05:30:16;;;;;;;9.87;1.20;;;16.20;99.90;;;;;;5086853;28;20451;-80
2022/07/10 05:32:46;;;;;;;8.60;1.30;;;16.30;99.90;;;;;;5092218;28;20477;-81
2022/07/10 05:35:15;;;;;;;5.13;1.03;;;16.30;99.90;;;;;;5091666;28;20458;-78
2022/07/10 05:37:42;;;;;;;5.40;1.17;;;16.20;99.90;;;;;;5083739;28;20488;-80
2022/07/10 05:40:10;;;;;;;4.67;1.70;;;16.40;99.90;;;;;;5083624;28;20461;-80
2022/07/10 05:42:37;;;;;;;6.77;1.10;;;16.40;99.90;;;;;;5083946;28;20474;-80
2022/07/10 05:45:05;;;;;;;9.47;1.40;;;16.40;99.90;;;;;;5070408;28;20509;-81
2022/07/10 05:47:32;;;;;;;2.50;1.30;;;16.30;99.90;;;;;;5066685;28;20530;-80
2022/07/10 05:50:00;;;;;;;4.33;1.10;;;16.30;99.90;;;;;;5069074;28;20454;-78
2022/07/10 05:52:28;;;;;;;4.10;1.40;;;16.40;99.90;;;;;;5077465;28;20508;-77
2022/07/10 05:54:56;;;;;;;4.33;0.90;;;16.30;99.90;;;;;;5072334;28;20454;-77
2022/07/10 05:57:23;;;;;;;3.90;1.10;;;16.40;99.90;;;;;;5078851;28;20492;-79
2022/07/10 05:59:50;;;;;;;5.40;1.77;;;16.40;99.90;;;;;;5076228;28;20989;-78
2022/07/10 06:02:17;;;;;;;5.93;1.27;;;16.50;99.90;;;;;;5071847;28;21085;-79
2022/07/10 06:04:44;;;;;;;4.93;1.30;;;16.60;99.90;;;;;;5074783;28;20486;-78
2022/07/10 06:07:10;;;;;;;3.77;1.50;;;16.80;99.90;;;;;;5077420;28;20485;-77
2022/07/10 06:09:39;;;;;;;7.80;1.80;;;17.00;99.90;;;;;;5093506;28;20904;-77
2022/07/10 06:12:06;;;;;;;5.73;1.50;;;17.10;99.90;;;;;;5093388;28;20505;-78
2022/07/10 06:14:33;;;;;;;9.33;1.40;;;17.20;99.90;;;;;;5098453;28;20517;-81
2022/07/10 06:17:00;;;;;;;5.20;1.50;;;17.20;99.90;;;;;;5092146;28;20478;-78
2022/07/10 06:19:27;;;;;;;5.60;1.20;;;17.30;99.90;;;;;;5077425;28;20506;-81
2022/07/10 06:24:34;;;;;;;8.40;1.67;;;17.40;99.90;;;;;;5079656;28;20562;-78
2022/07/10 06:27:03;;;;;;;6.53;1.23;;;17.50;99.90;;;;;;5080325;28;20534;-80
2022/07/10 06:29:30;;;;;;;3.97;1.27;;;17.40;99.90;;;;;;5076409;28;20906;-80
2022/07/10 06:31:56;;;;;;;3.13;1.00;;;17.40;99.90;;;;;;5080248;28;20919;-79
2022/07/10 06:34:23;;;;;;;8.73;1.57;;;17.40;99.90;;;;;;5100949;28;20480;-79
2022/07/10 06:36:50;;;;;;;5.90;1.63;;;17.40;99.90;;;;;;5098311;28;20512;-79
2022/07/10 06:39:17;;;;;;;5.17;1.50;;;17.40;99.90;;;;;;5095276;28;20494;-78
2022/07/10 06:41:44;;;;;;;4.30;1.30;;;17.50;99.90;;;;;;5067753;28;20469;-79
2022/07/10 06:44:12;;;;;;;4.17;1.20;;;17.40;99.90;;;;;;5081034;28;20479;-78
2022/07/10 06:46:39;;;;;;;4.43;1.27;;;17.40;99.90;;;;;;5090167;28;20473;-80
2022/07/10 06:49:05;;;;;;;5.87;1.30;;;17.40;99.90;;;;;;5079050;28;20654;-79
2022/07/10 06:51:32;;;;;;;4.83;1.30;;;17.40;99.90;;;;;;5078998;28;20498;-78
2022/07/10 06:53:59;;;;;;;4.80;1.30;;;17.40;99.90;;;;;;5061540;28;20515;-79
2022/07/10 06:56:27;;;;;;;4.43;1.60;;;17.40;99.90;;;;;;5064187;28;20476;-80
2022/07/10 06:58:54;;;;;;;5.97;1.23;;;17.20;99.90;;;;;;5078385;28;20469;-79
2022/07/10 07:01:22;;;;;;;5.00;1.57;;;17.30;99.90;;;;;;5080857;28;20517;-79
2022/07/10 07:03:48;;;;;;;7.37;1.60;;;17.30;99.90;;;;;;5083981;28;20516;-81
2022/07/10 07:06:15;;;;;;;3.83;1.23;;;17.40;99.90;;;;;;5065536;28;21011;-80
2022/07/10 07:08:42;;;;;;;6.90;1.70;;;17.30;99.90;;;;;;5074930;28;20512;-78
2022/07/10 07:11:09;;;;;;;7.30;1.30;;;17.30;99.90;;;;;;5057109;28;20975;-78
2022/07/10 07:13:36;;;;;;;8.53;2.47;;;17.40;99.90;;;;;;5058970;28;20465;-79
2022/07/10 07:16:06;;;;;;;6.13;1.10;;;17.50;99.90;;;;;;5075577;28;20494;-81
2022/07/10 07:18:37;;;;;;;5.60;1.50;;;17.60;99.90;;;;;;5070232;28;20491;-79
2022/07/10 07:23:48;;;;;;;6.83;1.20;;;17.80;99.90;;;;;;5074360;28;20530;-80
2022/07/10 07:26:15;;;;;;;4.47;1.27;;;17.80;99.90;;;;;;5082472;28;20485;-83
2022/07/10 07:28:42;;;;;;;4.70;1.23;;;17.70;99.90;;;;;;5080092;28;20972;-83
2022/07/10 07:31:09;;;;;;;6.87;1.73;;;17.70;99.90;;;;;;5090146;28;20948;-84
2022/07/10 07:33:37;;;;;;;6.77;1.10;;;17.60;99.90;;;;;;5087206;28;20479;-83
2022/07/10 07:36:04;;;;;;;5.17;1.23;;;17.40;99.90;;;;;;5086260;28;20458;-85
2022/07/10 07:38:31;;;;;;;6.10;1.40;;;17.30;99.90;;;;;;5089890;28;20453;-84
2022/07/10 07:40:58;;;;;;;4.30;1.00;;;17.30;99.90;;;;;;5087786;28;20480;-84
2022/07/10 07:43:25;;;;;;;5.60;1.33;;;17.20;99.90;;;;;;5087261;28;20481;-86
2022/07/10 07:45:51;;;;;;;6.00;1.67;;;17.00;99.90;;;;;;5083651;28;20490;-81
2022/07/10 07:48:18;;;;;;;6.93;1.63;;;17.00;99.90;;;;;;5087789;28;20481;-81
2022/07/10 07:50:47;;;;;;;6.33;1.40;;;17.00;99.90;;;;;;5084434;28;20454;-80
2022/07/10 07:53:13;;;;;;;11.30;1.40;;;16.90;99.90;;;;;;5062919;28;21017;-78
2022/07/10 07:55:40;;;;;;;4.20;1.00;;;16.80;99.90;;;;;;5061473;28;20812;-78
2022/07/10 07:58:07;;;;;;;5.03;1.10;;;16.80;99.90;;;;;;5098785;28;20454;-78
2022/07/10 08:00:34;;;;;;;7.80;1.53;;;16.80;99.90;;;;;;5083486;28;20465;-78
2022/07/10 08:03:15;;;;;;;6.30;1.60;;;16.80;99.90;;;;;;5087108;28;20483;-80
2022/07/10 08:05:42;;;;;;;5.73;1.53;;;16.80;99.90;;;;;;5092174;28;20478;-79
2022/07/10 08:08:10;;;;;;;4.70;1.17;;;16.90;99.90;;;;;;5083067;28;20508;-80
2022/07/10 08:10:38;;;;;;;4.77;1.10;;;16.80;99.90;;;;;;5078048;28;20480;-81
2022/07/10 08:13:05;;;;;;;5.37;1.40;;;16.80;99.90;;;;;;5062121;28;20514;-79
2022/07/10 08:15:34;;;;;;;3.30;1.33;;;16.80;99.90;;;;;;5098233;28;20441;-80
2022/07/10 08:18:03;;;;;;;9.83;1.73;;;16.80;99.90;;;;;;5085995;28;20458;-79
2022/07/10 08:20:30;;;;;;;4.63;1.17;;;16.80;99.90;;;;;;5074933;28;20975;-79
2022/07/10 08:22:58;;;;;;;4.17;1.47;;;16.90;99.90;;;;;;5074417;28;20502;-79
2022/07/10 08:25:27;;;;;;;6.03;1.50;;;17.00;99.90;;;;;;5077911;28;20582;-79
2022/07/10 08:27:53;;;;;;;4.47;1.23;;;17.10;99.90;;;;;;5088110;28;20486;-79
2022/07/10 08:30:20;;;;;;;8.10;1.50;;;17.10;99.90;;;;;;5077061;28;20486;-79
2022/07/10 08:32:49;;;;;;;5.73;1.70;;;17.20;99.90;;;;;;5074225;28;20473;-79
2022/07/10 08:35:15;;;;;;;6.03;1.40;;;17.20;99.90;;;;;;5079761;28;20457;-79
2022/07/10 08:37:45;;;;;;;4.17;2.00;;;17.20;99.90;;;;;;5081237;28;20560;-82
2022/07/10 08:40:14;;;;;;;6.27;1.50;;;17.10;99.90;;;;;;5086151;28;20450;-79
2022/07/10 08:42:44;;;;;;;8.53;2.90;;;17.10;99.90;;;;;;5074484;28;20558;-78
2022/07/10 08:45:12;;;;;;;4.53;1.40;;;17.20;99.90;;;;;;5078922;28;20862;-78
2022/07/10 08:47:41;;;;;;;5.37;1.70;;;17.20;99.90;;;;;;5082782;28;20876;-79
2022/07/10 08:50:17;;;;;;;7.27;1.70;;;17.20;99.90;;;;;;5073724;28;20471;-78
2022/07/10 08:52:50;;;;;;;5.97;2.07;;;17.20;99.90;;;;;;5082647;28;20471;-82
2022/07/10 08:55:18;;;;;;;5.57;1.70;;;17.10;99.90;;;;;;5063977;28;20488;-80
2022/07/10 08:57:47;;;;;;;6.40;1.80;;;17.00;99.90;;;;;;5066453;28;20519;-79
2022/07/10 09:00:14;;;;;;;4.80;1.60;;;17.00;99.90;;;;;;5077407;28;20549;-80
2022/07/10 09:02:43;;;;;;;4.63;2.10;;;17.00;99.90;;;;;;5080483;28;20489;-82
2022/07/10 09:05:10;;;;;;;3.10;1.90;;;17.00;99.90;;;;;;5075397;28;20510;-78
2022/07/10 09:07:37;;;;;;;5.00;2.50;;;17.00;99.90;;;;;;5077077;28;20447;-79
2022/07/10 09:10:08;;;;;;;7.00;2.43;;;17.20;99.90;;;;;;5079903;28;20480;-82
2022/07/10 09:12:52;;;;;;;4.00;2.10;;;17.10;99.90;;;;;;5073148;28;20503;-80
2022/07/10 09:15:21;;;;;;;6.50;2.73;;;17.20;99.90;;;;;;5074959;28;20487;-78
2022/07/10 09:17:55;;;;;;;7.20;2.87;;;17.20;99.90;;;;;;5087234;28;20463;-82
2022/07/10 09:20:30;;;;;;;4.50;2.40;;;17.20;99.90;;;;;;5077984;28;20545;-79
2022/07/10 09:22:58;;;;;;;8.10;2.40;;;17.20;99.90;;;;;;5070486;28;20501;-81
2022/07/10 09:25:32;;;;;;;3.60;1.90;;;17.20;99.90;;;;;;5076965;28;20492;-79
2022/07/10 09:28:06;;;;;;;6.27;2.30;;;17.30;99.90;;;;;;5074405;28;20452;-78
2022/07/10 09:30:35;;;;;;;4.13;1.83;;;17.40;99.90;;;;;;5085682;28;20472;-80
2022/07/10 09:33:19;;;;;;;5.60;2.07;;;17.50;99.90;;;;;;5083535;28;20491;-82
2022/07/10 09:36:07;;;;;;;5.37;1.60;;;17.60;99.90;;;;;;5088324;28;20455;-80
2022/07/10 09:38:55;;;;;;;3.90;2.27;;;17.60;99.90;;;;;;5088691;28;20451;-81
2022/07/10 09:41:26;;;;;;;5.20;2.03;;;17.60;99.90;;;;;;5086541;28;20476;-80
2022/07/10 09:43:56;;;;;;;5.33;1.93;;;17.50;99.90;;;;;;5074215;28;20505;-82
2022/07/10 09:46:24;;;;;;;4.10;2.83;;;17.40;99.90;;;;;;5082685;28;20496;-80
2022/07/10 09:49:06;;;;;;;3.63;2.87;;;17.50;99.90;;;;;;5081201;28;20459;-82
2022/07/10 09:51:34;;;;;;;4.80;2.60;;;17.80;99.90;;;;;;5083513;28;20502;-80
2022/07/10 09:54:03;;;;;;;6.33;2.27;;;17.80;99.90;;;;;;5081523;28;20456;-79
2022/07/10 09:56:39;;;;;;;3.57;2.27;;;17.90;99.90;;;;;;5085433;28;20502;-82
2022/07/10 09:59:10;;;;;;;3.53;2.03;;;17.90;99.90;;;;;;5068533;28;20898;-80
2022/07/10 10:01:37;;;;;;;5.03;2.00;;;18.00;99.90;;;;;;5064289;28;20481;-79
2022/07/10 10:04:05;;;;;;;4.13;2.00;;;17.90;99.90;;;;;;5073177;28;20451;-79
2022/07/10 10:06:34;;;;;;;4.87;1.60;;;17.80;99.90;;;;;;5073997;28;21010;-82
2022/07/10 10:09:06;;;;;;;4.13;2.30;;;17.80;99.90;;;;;;5080943;28;20471;-80
2022/07/10 10:11:48;;;;;;;3.40;2.07;;;17.90;99.90;;;;;;5084902;28;20473;-81
2022/07/10 10:14:19;;;;;;;3.10;2.40;;;18.00;99.90;;;;;;5090846;28;20479;-80
2022/07/10 10:16:54;;;;;;;5.37;3.03;;;18.00;99.90;;;;;;5076261;28;21045;-80
2022/07/10 10:22:09;;;;;;;5.50;3.73;;;18.10;99.90;;;;;;5086405;28;20442;-81
2022/07/10 10:24:39;;;;;;;5.07;4.23;;;17.90;99.90;;;;;;5081976;28;20468;-78
2022/07/10 10:27:07;;;;;;;7.30;4.80;;;17.90;99.90;;;;;;5080417;28;20469;-81
2022/07/10 10:29:37;;;;;;;6.40;4.70;;;17.90;99.90;;;;;;5087727;28;20458;-79
2022/07/10 10:32:05;;;;;;;4.23;3.80;;;17.90;99.90;;;;;;5084848;28;20486;-80
2022/07/10 10:34:42;;;;;;;6.63;4.07;;;17.90;99.90;;;;;;5076248;28;20446;-81
2022/07/10 10:37:34;;;;;;;5.07;3.90;;;17.90;99.90;;;;;;5074371;28;20468;-81
2022/07/10 10:40:01;;;;;;;6.80;4.00;;;17.80;99.90;;;;;;5086969;28;20458;-79
2022/07/10 10:42:36;;;;;;;5.60;4.10;;;17.80;99.90;;;;;;5090111;28;20525;-80
2022/07/10 10:45:31;;;;;;;4.97;3.33;;;17.70;99.90;;;;;;5083971;28;20793;-81
2022/07/10 10:47:59;;;;;;;9.00;3.20;;;17.70;99.90;;;;;;5083031;28;20455;-80
2022/07/10 10:50:38;;;;;;;5.37;3.83;;;17.70;99.90;;;;;;5082549;28;20460;-83
2022/07/10 10:53:05;;;;;;;5.40;3.60;;;17.70;99.90;;;;;;5079254;28;20550;-80
2022/07/10 10:55:32;;;;;;;7.80;4.00;;;17.70;99.90;;;;;;5067456;28;20460;-80
2022/07/10 10:58:17;;;;;;;6.37;4.03;;;17.70;99.90;;;;;;5083015;28;20518;-79
2022/07/10 11:00:48;;;;;;;6.70;4.33;;;17.80;99.90;;;;;;5089245;28;20456;-81
2022/07/10 11:03:24;;;;;;;6.43;4.47;;;17.80;99.90;;;;;;5067351;28;20499;-80
2022/07/10 11:05:52;;;;;;;6.60;4.13;;;17.70;99.90;;;;;;5071794;28;20495;-79
2022/07/10 11:08:43;;;;;;;5.33;3.10;;;17.80;99.90;;;;;;5085206;28;20453;-87
2022/07/10 11:11:39;;;;;;;5.63;3.40;;;18.00;99.90;;;;;;5069250;28;20460;-79
2022/07/10 11:14:07;;;;;;;5.17;2.93;;;18.10;99.90;;;;;;5067913;28;20544;-81
2022/07/10 11:16:35;;;;;;;5.80;2.60;;;18.20;99.90;;;;;;5077809;28;20449;-79
2022/07/10 11:19:04;;;;;;;3.83;2.40;;;18.20;99.90;;;;;;5089179;28;20443;-79
2022/07/10 11:21:46;;;;;;;4.40;2.70;;;18.30;99.90;;;;;;5089022;28;20877;-79
2022/07/10 11:24:28;;;;;;;2.90;2.10;;;18.40;99.90;;;;;;5089325;28;20455;-80
2022/07/10 11:27:03;;;;;;;9.30;7.00;;;18.40;99.90;;;;;;5091010;28;20484;-83
2022/07/10 11:29:38;;;;;;;12.40;8.40;;;18.40;99.90;;;;;;5093216;28;20836;-82
2022/07/10 11:32:07;;;;;;;11.73;10.50;;;18.60;99.90;;;;;;5091185;28;20483;-81
2022/07/10 11:34:37;;;;;;;12.17;9.90;;;18.80;99.90;;;;;;5091363;28;20438;-83
2022/07/10 11:37:14;;;;;;;10.87;9.83;;;19.00;99.90;;;;;;5078860;28;20454;-83
2022/07/10 11:39:41;;;;;;;11.30;10.20;;;19.20;99.90;;;;;;5072118;28;20466;-83
2022/07/10 11:42:07;;;;;;;12.53;10.17;;;19.10;99.90;;;;;;5072313;28;20497;-83
2022/07/10 11:44:34;;;;;;;10.23;9.17;;;19.30;99.90;;;;;;5070786;28;20444;-80
2022/07/10 11:47:02;;;;;;;10.57;9.57;;;19.30;99.90;;;;;;5083732;28;20521;-80
2022/07/10 11:49:31;;;;;;;10.60;9.00;;;19.30;99.90;;;;;;5092799;28;20466;-81
2022/07/10 11:52:03;;;;;;;7.70;6.90;;;19.20;99.90;;;;;;5091477;28;20473;-82
2022/07/10 11:54:30;;;;;;;7.63;6.47;;;19.20;99.90;;;;;;5073008;28;20826;-82
2022/07/10 11:57:05;;;;;;;6.77;5.77;;;19.00;99.90;;;;;;5077214;28;20503;-79
2022/07/10 11:59:32;;;;;;;6.00;5.03;;;18.80;99.90;;;;;;5092127;28;20430;-82
2022/07/10 12:01:58;;;;;;;4.93;4.00;;;18.60;99.90;;;;;;5070626;28;20502;-82
2022/07/10 12:04:29;;;;;;;5.00;4.00;;;18.40;99.90;;;;;;5087820;28;20460;-81
2022/07/10 12:06:57;;;;;;;5.93;2.57;;;18.20;99.90;;;;;;5090745;28;20489;-80
2022/07/10 12:09:25;;;;;;;3.37;2.50;;;18.30;99.90;;;;;;5080722;28;20538;-81
2022/07/10 12:12:03;;;;;;;3.53;2.40;;;18.10;99.90;;;;;;5073575;28;20480;-81
2022/07/10 12:14:30;;;;;;;4.80;2.70;;;18.00;99.90;;;;;;5072019;28;20485;-80
2022/07/10 12:16:58;;;;;;;3.30;2.00;;;18.10;99.90;;;;;;5074885;28;20454;-79
2022/07/10 12:19:27;;;;;;;2.80;2.17;;;18.30;99.90;;;;;;5070575;28;20451;-81
2022/07/10 12:21:55;;;;;;;3.00;2.27;;;18.50;99.90;;;;;;5068020;28;20465;-80
2022/07/10 12:24:24;;;;;;;2.50;2.17;;;18.90;99.90;;;;;;5066349;28;20486;-82
2022/07/10 12:26:52;;;;;;;2.97;2.60;;;19.20;99.90;;;;;;5074809;28;20476;-81
2022/07/10 12:29:24;;;;;;;3.37;2.73;;;19.60;99.90;;;;;;5084990;28;20471;-81
2022/07/10 12:31:52;;;;;;;4.37;2.47;;;19.70;99.90;;;;;;5086864;28;20463;-79
2022/07/10 12:34:19;;;;;;;2.43;1.93;;;19.60;99.90;;;;;;5086134;28;20454;-80
2022/07/10 12:36:49;;;;;;;2.90;1.87;;;19.70;99.90;;;;;;5086823;28;20502;-81
2022/07/10 12:39:18;;;;;;;3.17;1.40;;;19.80;99.90;;;;;;5083410;28;20459;-82
2022/07/10 12:41:57;;;;;;;3.20;1.70;;;20.20;99.90;;;;;;5083250;28;20475;-80
2022/07/10 12:44:39;;;;;;;3.40;1.30;;;20.60;99.90;;;;;;5081627;28;20477;-79
2022/07/10 12:47:10;;;;;;;3.20;1.43;;;21.10;99.90;;;;;;5085285;28;20577;-82
2022/07/10 12:49:50;;;;;;;2.40;1.13;;;21.20;99.90;;;;;;5072214;28;20475;-82
2022/07/10 12:52:27;;;;;;;3.23;1.70;;;21.10;99.90;;;;;;5064207;28;20546;-81
2022/07/10 12:55:09;;;;;;;5.57;1.63;;;20.90;99.90;;;;;;5065086;28;20452;-81
2022/07/10 12:57:51;;;;;;;3.37;1.70;;;20.60;99.90;;;;;;5076926;28;20463;-84
2022/07/10 13:00:20;;;;;;;2.40;1.50;;;20.20;99.90;;;;;;5087800;28;21065;-81
2022/07/10 13:02:50;;;;;;;5.17;2.10;;;19.90;99.90;;;;;;5073302;28;20483;-82
2022/07/10 13:05:30;;;;;;;3.60;1.90;;;19.60;99.90;;;;;;5086497;28;20455;-84
2022/07/10 13:08:07;;;;;;;3.50;1.83;;;19.40;99.90;;;;;;5082659;28;20656;-82